createdAt,value
2018-03-26T00:00:12.272Z,3.37
2018-03-26T00:10:07.697Z,3.53
2018-03-26T00:20:05.375Z,3.32
2018-03-26T00:30:02.444Z,3.43
2018-03-26T00:39:53.937Z,3.43
2018-03-26T00:49:50.561Z,3.28
2018-03-26T00:59:47.008Z,3.27
2018-03-26T01:09:41.564Z,3.24
2018-03-26T01:19:39.240Z,3.19
2018-03-26T01:29:33.272Z,3.10
2018-03-26T01:39:29.029Z,3.25
2018-03-26T01:49:26.702Z,3.17
2018-03-26T01:59:24.382Z,3.11
2018-03-26T02:09:22.972Z,3.04
2018-03-26T02:19:19.622Z,2.88
2018-03-26T02:29:17.196Z,2.66
2018-03-26T02:39:14.414Z,2.63
2018-03-26T02:49:11.265Z,2.70
2018-03-26T02:59:08.320Z,2.86
2018-03-26T03:09:06.149Z,2.70
2018-03-26T03:19:02.274Z,2.21
2018-03-26T03:28:59.557Z,1.64
2018-03-26T03:38:57.398Z,1.29
2018-03-26T03:48:54.236Z,0.89
2018-03-26T03:58:48.390Z,0.68
2018-03-26T04:08:46.545Z,0.49
2018-03-26T04:18:42.814Z,0.29
2018-03-26T04:28:40.639Z,0.16
2018-03-26T04:38:37.153Z,0.14
2018-03-26T04:48:34.494Z,-0.05
2018-03-26T04:58:31.332Z,-0.17
2018-03-26T05:08:27.608Z,0.03
2018-03-26T05:18:23.853Z,0.01
2018-03-26T05:28:22.693Z,0.13
2018-03-26T05:38:20.581Z,0.17
2018-03-26T05:48:18.316Z,0.47
2018-03-26T05:58:14.431Z,0.59
2018-03-26T06:08:12.426Z,0.82
2018-03-26T06:18:07.974Z,0.80
2018-03-26T06:28:05.077Z,1.07
2018-03-26T06:38:04.544Z,1.38
2018-03-26T06:47:55.580Z,1.44
2018-03-26T06:57:48.684Z,1.56
2018-03-26T07:07:46.018Z,2.14
2018-03-26T07:17:39.269Z,2.96
2018-03-26T07:27:36.976Z,3.79
2018-03-26T07:37:34.064Z,3.83
2018-03-26T07:47:31.672Z,4.26
2018-03-26T07:57:26.948Z,4.43
2018-03-26T08:07:22.233Z,4.77
2018-03-26T08:17:16.941Z,5.23
2018-03-26T08:27:12.901Z,5.11
2018-03-26T08:37:10.746Z,5.44
2018-03-26T08:47:08.285Z,5.90
2018-03-26T08:57:04.839Z,6.08
2018-03-26T09:07:02.375Z,6.14
2018-03-26T09:17:00.253Z,6.18
2018-03-26T09:26:57.078Z,6.69
2018-03-26T09:36:49.679Z,6.29
2018-03-26T09:46:48.603Z,7.44
2018-03-26T09:56:45.967Z,7.88
2018-03-26T10:06:41.678Z,7.91
2018-03-26T10:16:36.555Z,8.47
2018-03-26T10:26:15.071Z,8.25
2018-03-26T10:35:51.015Z,8.09
2018-03-26T10:45:28.859Z,8.65
2018-03-26T10:55:06.695Z,9.56
2018-03-26T11:04:42.729Z,9.97
2018-03-26T11:14:20.830Z,8.90
2018-03-26T11:24:00.339Z,9.65
2018-03-26T11:33:28.707Z,10.19
2018-03-26T11:43:05.302Z,10.73
2018-03-26T11:52:43.107Z,10.80
2018-03-26T12:02:19.531Z,10.87
2018-03-26T12:11:54.809Z,9.89
2018-03-26T12:21:31.349Z,10.36
2018-03-26T12:31:09.174Z,11.26
2018-03-26T12:40:46.037Z,11.89
2018-03-26T12:50:21.789Z,11.83
2018-03-26T12:59:57.786Z,10.78
2018-03-26T13:09:32.046Z,10.46
2018-03-26T13:19:07.992Z,10.41
2018-03-26T13:28:45.252Z,10.39
2018-03-26T13:38:23.107Z,11.71
2018-03-26T13:48:04.136Z,10.55
2018-03-26T13:57:29.462Z,10.08
2018-03-26T14:07:05.441Z,9.86
2018-03-26T14:16:41.571Z,10.06
2018-03-26T14:26:18.638Z,10.10
2018-03-26T14:35:59.740Z,10.37
2018-03-26T14:45:28.538Z,10.65
2018-03-26T14:55:09.709Z,11.31
2018-03-26T15:04:43.390Z,10.95
2018-03-26T15:14:17.916Z,10.16
2018-03-26T15:23:53.521Z,9.96
2018-03-26T15:33:29.589Z,9.58
2018-03-26T15:43:22.885Z,9.12
2018-03-26T15:53:17.302Z,8.75
2018-03-26T16:03:13.894Z,8.72
2018-03-26T16:13:11.084Z,8.51
2018-03-26T16:23:04.565Z,8.39
2018-03-26T16:32:59.922Z,8.25
2018-03-26T16:42:55.638Z,8.09
2018-03-26T16:52:46.583Z,7.93
2018-03-26T17:02:40.346Z,7.78
2018-03-26T17:12:36.712Z,7.67
2018-03-26T17:22:27.083Z,7.57
2018-03-26T17:32:19.916Z,7.55
2018-03-26T17:42:16.686Z,7.31
2018-03-26T17:52:01.075Z,7.23
2018-03-26T18:01:41.227Z,7.29
2018-03-26T18:11:37.664Z,7.20
2018-03-26T18:21:28.871Z,7.16
2018-03-26T18:31:21.433Z,7.16
2018-03-26T18:41:17.384Z,7.11
2018-03-26T18:51:13.401Z,6.93
2018-03-26T19:01:09.238Z,6.80
2018-03-26T19:11:05.415Z,6.72
2018-03-26T19:20:58.620Z,6.54
2018-03-26T19:30:55.854Z,6.39
2018-03-26T19:40:52.512Z,6.18
2018-03-26T19:50:50.366Z,6.21
2018-03-26T20:00:45.048Z,6.03
2018-03-26T20:10:36.961Z,5.97
2018-03-26T20:20:30.388Z,5.89
2018-03-26T20:30:25.813Z,5.85
2018-03-26T20:40:21.084Z,5.83
2018-03-26T20:50:15.985Z,5.75
2018-03-26T21:00:12.485Z,5.70
2018-03-26T21:10:10.328Z,5.70
2018-03-26T21:20:06.895Z,5.72
2018-03-26T21:30:04.977Z,5.65
2018-03-26T21:40:02.956Z,5.68
2018-03-26T21:49:59.642Z,5.62
2018-03-26T21:59:55.611Z,5.53
2018-03-26T22:09:53.370Z,5.45
2018-03-26T22:19:51.393Z,5.38
2018-03-26T22:29:46.651Z,5.21
2018-03-26T22:39:42.302Z,5.21
2018-03-26T22:49:40.004Z,5.00
2018-03-26T22:59:38.024Z,4.88
2018-03-26T23:09:35.100Z,4.58
2018-03-26T23:19:32.077Z,4.56
2018-03-26T23:29:29.580Z,4.58
2018-03-26T23:39:27.090Z,4.18
2018-03-26T23:49:23.890Z,3.92
2018-03-26T23:59:18.868Z,3.66
